createdAt,value
2022-08-09T00:00:59.200Z,18.73
2022-08-09T00:04:00.336Z,18.68
2022-08-09T00:07:10.764Z,18.67
2022-08-09T00:10:08.180Z,18.51
2022-08-09T00:13:16.772Z,18.53
2022-08-09T00:16:15.322Z,18.60
2022-08-09T00:19:23.384Z,18.69
2022-08-09T00:22:24.826Z,18.50
2022-08-09T00:25:32.942Z,18.09
2022-08-09T00:28:29.863Z,17.70
2022-08-09T00:31:58.290Z,17.53
2022-08-09T00:34:46.339Z,17.81
2022-08-09T00:37:50.800Z,18.10
2022-08-09T00:40:52.592Z,17.94
2022-08-09T00:44:26.383Z,17.80
2022-08-09T00:47:08.577Z,18.22
2022-08-09T00:50:14.184Z,18.08
2022-08-09T00:53:32.531Z,17.73
2022-08-09T00:56:33.999Z,17.81
2022-08-09T00:59:41.485Z,17.69
2022-08-09T01:02:48.068Z,17.41
2022-08-09T01:06:13.913Z,17.32
2022-08-09T01:09:36.770Z,17.43
2022-08-09T01:12:38.985Z,17.97
2022-08-09T01:15:40.971Z,18.28
2022-08-09T01:19:01.980Z,18.13
2022-08-09T01:22:27.600Z,18.31
2022-08-09T01:25:54.770Z,18.44
2022-08-09T01:28:54.107Z,17.97
2022-08-09T01:32:30.156Z,17.61
2022-08-09T01:35:28.338Z,17.50
2022-08-09T01:38:28.826Z,17.45
2022-08-09T01:41:31.651Z,17.30
2022-08-09T01:44:29.517Z,17.34
2022-08-09T01:47:28.394Z,17.36
2022-08-09T01:50:30.046Z,17.35
2022-08-09T01:53:41.501Z,17.34
2022-08-09T01:56:40.050Z,17.70
2022-08-09T01:59:40.893Z,18.09
2022-08-09T02:02:50.062Z,17.94
2022-08-09T02:06:03.314Z,18.16
2022-08-09T02:09:04.267Z,17.97
2022-08-09T02:12:01.906Z,18.04
2022-08-09T02:14:58.978Z,17.76
2022-08-09T02:18:09.910Z,17.28
2022-08-09T02:21:21.944Z,17.05
2022-08-09T02:24:25.925Z,17.13
2022-08-09T02:27:43.267Z,17.30
2022-08-09T02:30:46.427Z,17.30
2022-08-09T02:34:06.613Z,17.02
2022-08-09T02:37:05.200Z,16.99
2022-08-09T02:40:10.518Z,17.23
2022-08-09T02:43:08.654Z,17.30
2022-08-09T02:46:09.121Z,17.03
2022-08-09T02:49:07.742Z,16.83
2022-08-09T02:52:08.079Z,17.15
2022-08-09T02:55:19.952Z,17.42
2022-08-09T02:58:35.967Z,17.63
2022-08-09T03:01:58.666Z,17.80
2022-08-09T03:04:51.102Z,17.75
2022-08-09T03:07:54.835Z,17.30
2022-08-09T03:10:53.160Z,16.96
2022-08-09T03:13:59.354Z,16.65
2022-08-09T03:17:02.395Z,16.65
2022-08-09T03:20:11.155Z,16.64
2022-08-09T03:23:15.095Z,16.55
2022-08-09T03:26:14.381Z,16.41
2022-08-09T03:29:13.502Z,16.44
2022-08-09T03:32:20.118Z,16.45
2022-08-09T03:35:24.696Z,16.73
2022-08-09T03:38:37.354Z,16.67
2022-08-09T03:41:48.691Z,16.54
2022-08-09T03:44:46.333Z,16.42
2022-08-09T03:47:46.310Z,16.55
2022-08-09T03:50:44.215Z,16.70
2022-08-09T03:53:41.116Z,16.71
2022-08-09T03:56:41.193Z,16.51
2022-08-09T03:59:53.821Z,16.16
2022-08-09T04:02:52.619Z,16.16
2022-08-09T04:05:50.858Z,16.11
2022-08-09T04:08:48.258Z,16.12
2022-08-09T04:11:51.082Z,16.16
2022-08-09T04:15:00.450Z,16.18
2022-08-09T04:18:00.507Z,16.08
2022-08-09T04:20:58.047Z,16.18
2022-08-09T04:23:57.735Z,16.21
2022-08-09T04:26:54.954Z,16.08
2022-08-09T04:29:53.043Z,16.02
2022-08-09T04:32:51.833Z,16.06
2022-08-09T04:35:49.203Z,16.44
2022-08-09T04:38:47.359Z,16.75
2022-08-09T04:41:45.531Z,17.36
2022-08-09T04:44:49.063Z,17.65
2022-08-09T04:48:00.209Z,17.36
2022-08-09T04:51:00.486Z,16.90
2022-08-09T04:53:59.350Z,16.48
2022-08-09T04:56:56.467Z,16.72
2022-08-09T04:59:55.463Z,17.09
2022-08-09T05:02:53.412Z,17.12
2022-08-09T05:05:52.739Z,17.04
2022-08-09T05:09:04.630Z,16.73
2022-08-09T05:12:02.362Z,16.70
2022-08-09T05:15:01.055Z,16.80
2022-08-09T05:18:42.520Z,17.18
2022-08-09T05:21:24.282Z,17.38
2022-08-09T05:24:22.130Z,17.33
2022-08-09T05:27:21.116Z,17.22
2022-08-09T05:30:20.087Z,17.27
2022-08-09T05:33:17.011Z,17.57
2022-08-09T05:36:15.565Z,17.58
2022-08-09T05:39:13.124Z,17.63
2022-08-09T05:42:20.831Z,17.80
2022-08-09T05:45:19.098Z,17.97
2022-08-09T05:48:16.135Z,18.12
2022-08-09T05:51:30.119Z,18.19
2022-08-09T05:54:31.110Z,18.14
2022-08-09T05:57:55.987Z,18.29
2022-08-09T06:00:47.510Z,18.27
2022-08-09T06:03:58.448Z,18.22
2022-08-09T06:06:56.281Z,18.30
2022-08-09T06:10:01.386Z,18.32
2022-08-09T06:13:12.441Z,18.35
2022-08-09T06:16:16.462Z,18.77
2022-08-09T06:19:14.863Z,18.84
2022-08-09T06:22:15.377Z,18.87
2022-08-09T06:25:16.365Z,18.93
2022-08-09T06:28:13.716Z,19.05
2022-08-09T06:31:11.183Z,19.30
2022-08-09T06:34:09.482Z,19.36
2022-08-09T06:37:10.006Z,19.50
2022-08-09T06:40:20.285Z,19.49
2022-08-09T06:43:20.929Z,19.56
2022-08-09T06:46:39.203Z,19.65
2022-08-09T06:50:11.809Z,19.78
2022-08-09T06:52:52.927Z,19.76
2022-08-09T06:55:50.428Z,19.82
2022-08-09T07:00:50.760Z,19.68
2022-08-09T07:02:04.771Z,19.63
2022-08-09T07:05:02.573Z,19.80
2022-08-09T07:08:01.771Z,19.95
2022-08-09T07:10:59.225Z,19.99
2022-08-09T07:14:05.585Z,20.10
2022-08-09T07:17:03.649Z,20.02
2022-08-09T07:20:06.099Z,20.08
2022-08-09T07:23:18.641Z,20.13
2022-08-09T07:26:16.489Z,20.26
2022-08-09T07:29:16.147Z,20.29
2022-08-09T07:32:13.129Z,20.35
2022-08-09T07:35:11.999Z,20.36
2022-08-09T07:38:09.162Z,20.44
2022-08-09T07:41:11.458Z,20.47
2022-08-09T07:44:11.775Z,20.64
2022-08-09T07:47:10.568Z,20.63
2022-08-09T07:50:12.538Z,20.67
2022-08-09T07:53:09.464Z,20.85
2022-08-09T07:56:06.811Z,21.07
2022-08-09T07:59:12.346Z,21.09
2022-08-09T08:02:11.213Z,21.07
2022-08-09T08:05:18.945Z,21.37
2022-08-09T08:09:00.213Z,21.45
2022-08-09T08:12:10.047Z,21.59
2022-08-09T08:14:51.729Z,21.70
2022-08-09T08:17:58.332Z,21.91
2022-08-09T08:20:56.354Z,21.94
2022-08-09T08:23:56.067Z,21.92
2022-08-09T08:26:56.817Z,22.12
2022-08-09T08:29:54.330Z,22.07
2022-08-09T08:32:54.071Z,22.18
2022-08-09T08:35:58.277Z,22.10
2022-08-09T08:38:57.989Z,22.26
2022-08-09T08:41:55.178Z,22.31
2022-08-09T08:44:57.645Z,22.42
2022-08-09T08:47:59.061Z,22.48
2022-08-09T08:50:57.417Z,22.48
2022-08-09T08:54:02.985Z,22.54
2022-08-09T08:57:01.906Z,22.74
2022-08-09T08:59:59.453Z,22.84
2022-08-09T09:03:04.473Z,22.90
2022-08-09T09:06:12.861Z,23.20
2022-08-09T09:09:21.091Z,23.31
2022-08-09T09:12:32.033Z,23.44
2022-08-09T09:15:31.530Z,23.48
2022-08-09T09:18:30.498Z,23.44
2022-08-09T09:21:27.282Z,23.62
2022-08-09T09:24:30.605Z,23.66
2022-08-09T09:28:06.412Z,23.89
2022-08-09T09:30:54.523Z,23.79
2022-08-09T09:33:57.007Z,23.79
2022-08-09T09:36:55.002Z,23.79
2022-08-09T09:39:55.448Z,23.98
2022-08-09T09:42:56.508Z,23.88
2022-08-09T09:45:57.126Z,23.78
2022-08-09T09:49:04.853Z,23.72
2022-08-09T09:52:05.465Z,23.96
2022-08-09T09:55:16.435Z,23.90
2022-08-09T09:58:24.656Z,23.96
2022-08-09T10:01:37.108Z,23.97
2022-08-09T10:04:35.359Z,23.94
2022-08-09T10:07:33.931Z,23.95
2022-08-09T10:10:31.938Z,24.04
2022-08-09T10:13:43.192Z,24.01
2022-08-09T10:16:57.284Z,24.06
2022-08-09T10:19:59.259Z,24.26
2022-08-09T10:23:00.991Z,23.99
2022-08-09T10:26:06.266Z,24.20
2022-08-09T10:29:20.985Z,24.62
2022-08-09T10:32:42.846Z,24.66
2022-08-09T10:35:41.515Z,24.26
2022-08-09T10:38:57.257Z,24.46
2022-08-09T10:41:57.670Z,24.67
2022-08-09T10:45:01.280Z,24.84
2022-08-09T10:48:16.872Z,24.94
2022-08-09T10:51:29.698Z,25.05
2022-08-09T10:54:38.935Z,25.15
2022-08-09T10:57:37.700Z,25.12
2022-08-09T11:00:37.611Z,25.14
2022-08-09T11:04:31.294Z,25.17
2022-08-09T11:07:56.599Z,25.27
2022-08-09T11:10:47.026Z,25.16
2022-08-09T11:14:32.123Z,25.04
2022-08-09T11:17:43.333Z,25.25
2022-08-09T11:20:45.463Z,25.26
2022-08-09T11:24:01.479Z,25.24
2022-08-09T11:27:03.702Z,25.10
2022-08-09T11:30:32.737Z,25.32
2022-08-09T11:33:46.226Z,25.52
2022-08-09T11:36:44.327Z,25.58
2022-08-09T11:40:04.461Z,25.50
2022-08-09T11:43:01.572Z,25.73
2022-08-09T11:46:00.035Z,25.89
2022-08-09T11:48:57.999Z,26.07
2022-08-09T11:53:15.214Z,26.05
2022-08-09T11:55:52.163Z,26.13
2022-08-09T11:58:54.655Z,26.28
2022-08-09T12:02:16.612Z,26.42
2022-08-09T12:05:17.466Z,26.45
2022-08-09T12:08:22.146Z,26.42
2022-08-09T12:11:21.339Z,26.37
2022-08-09T12:14:37.282Z,26.38
2022-08-09T12:17:43.549Z,26.29
2022-08-09T12:20:43.713Z,26.26
2022-08-09T12:23:58.054Z,26.31
2022-08-09T12:29:13.478Z,26.22
2022-08-09T12:30:36.853Z,26.07
2022-08-09T12:33:59.488Z,26.08
2022-08-09T12:36:59.021Z,26.05
2022-08-09T12:40:11.579Z,26.47
2022-08-09T12:43:09.607Z,26.54
2022-08-09T12:46:06.700Z,26.66
2022-08-09T12:49:04.811Z,26.57
2022-08-09T12:52:03.622Z,26.63
2022-08-09T12:56:12.653Z,26.59
2022-08-09T12:58:27.476Z,26.54
2022-08-09T13:01:28.331Z,26.73
2022-08-09T13:04:35.833Z,26.75
2022-08-09T13:07:51.591Z,26.88
2022-08-09T13:10:56.884Z,26.57
2022-08-09T13:14:38.629Z,26.65
2022-08-09T13:17:43.989Z,26.46
2022-08-09T13:20:37.678Z,26.64
2022-08-09T13:24:16.271Z,26.73
2022-08-09T13:27:08.618Z,26.75
2022-08-09T13:30:50.557Z,26.91
2022-08-09T13:33:35.934Z,26.93
2022-08-09T13:36:44.177Z,26.93
2022-08-09T13:41:56.658Z,26.87
2022-08-09T13:42:58.709Z,26.72
2022-08-09T13:46:44.774Z,26.49
2022-08-09T13:49:18.459Z,26.58
2022-08-09T13:52:15.387Z,27.02
2022-08-09T13:55:17.764Z,27.24
2022-08-09T13:58:18.733Z,27.27
2022-08-09T14:02:01.105Z,27.52
2022-08-09T14:04:32.662Z,27.37
2022-08-09T14:07:30.375Z,27.32
2022-08-09T14:10:49.157Z,27.23
2022-08-09T14:14:16.105Z,27.33
2022-08-09T14:17:06.386Z,27.44
2022-08-09T14:20:09.133Z,27.20
2022-08-09T14:23:06.815Z,27.23
2022-08-09T14:26:05.966Z,27.41
2022-08-09T14:29:08.302Z,27.34
2022-08-09T14:32:30.846Z,27.23
2022-08-09T14:35:28.516Z,27.68
2022-08-09T14:38:45.651Z,27.96
2022-08-09T14:41:50.763Z,28.14
2022-08-09T14:45:00.170Z,28.14
2022-08-09T14:47:59.626Z,28.16
2022-08-09T14:50:58.017Z,28.42
2022-08-09T14:53:55.741Z,28.55
2022-08-09T14:56:57.518Z,28.62
2022-08-09T14:59:56.717Z,28.58
2022-08-09T15:02:53.736Z,28.36
2022-08-09T15:05:58.157Z,28.59
2022-08-09T15:08:58.496Z,28.57
2022-08-09T15:11:57.312Z,28.71
2022-08-09T15:14:54.971Z,28.88
2022-08-09T15:17:53.220Z,28.88
2022-08-09T15:22:00.988Z,28.94
2022-08-09T15:24:12.171Z,28.70
2022-08-09T15:27:10.837Z,28.46
2022-08-09T15:30:57.084Z,28.28
2022-08-09T15:33:30.124Z,28.51
2022-08-09T15:36:48.128Z,28.34
2022-08-09T15:39:54.675Z,28.46
2022-08-09T15:42:53.128Z,28.23
2022-08-09T15:46:07.873Z,28.08
2022-08-09T15:49:07.954Z,27.88
2022-08-09T15:52:20.554Z,27.93
2022-08-09T15:55:23.947Z,28.02
2022-08-09T15:58:26.854Z,28.05
2022-08-09T16:01:24.666Z,28.06
2022-08-09T16:04:23.247Z,28.26
2022-08-09T16:07:21.148Z,28.06
2022-08-09T16:10:56.102Z,28.07
2022-08-09T16:14:03.450Z,28.10
2022-08-09T16:16:52.679Z,27.79
2022-08-09T16:20:03.859Z,28.04
2022-08-09T16:23:03.345Z,28.07
2022-08-09T16:26:02.808Z,27.85
2022-08-09T16:29:00.159Z,28.04
2022-08-09T16:32:17.935Z,28.15
2022-08-09T16:35:19.390Z,28.13
2022-08-09T16:38:34.690Z,28.05
2022-08-09T16:41:39.409Z,28.05
2022-08-09T16:44:49.206Z,27.85
2022-08-09T16:48:39.725Z,27.93
2022-08-09T16:51:08.241Z,28.13
2022-08-09T16:54:26.312Z,28.04
2022-08-09T16:58:08.135Z,27.97
2022-08-09T17:00:46.573Z,27.83
2022-08-09T17:03:45.021Z,27.64
2022-08-09T17:08:40.188Z,27.52
2022-08-09T17:10:01.962Z,27.41
2022-08-09T17:13:02.762Z,27.69
2022-08-09T17:16:04.386Z,27.68
2022-08-09T17:19:02.458Z,27.53
2022-08-09T17:22:02.887Z,27.56
2022-08-09T17:25:03.828Z,27.64
2022-08-09T17:28:05.489Z,27.47
2022-08-09T17:31:02.638Z,27.39
2022-08-09T17:33:59.581Z,27.42
2022-08-09T17:36:57.037Z,27.34
2022-08-09T17:40:00.231Z,27.30
2022-08-09T17:42:59.329Z,27.06
2022-08-09T17:46:03.738Z,26.74
2022-08-09T17:49:03.070Z,26.69
2022-08-09T17:52:02.359Z,26.89
2022-08-09T17:55:01.245Z,26.73
2022-08-09T17:58:03.221Z,26.59
2022-08-09T18:01:01.742Z,26.55
2022-08-09T18:03:59.665Z,26.47
2022-08-09T18:07:04.727Z,26.41
2022-08-09T18:10:05.691Z,26.43
2022-08-09T18:13:42.911Z,26.37
2022-08-09T18:16:29.247Z,26.04
2022-08-09T18:20:57.914Z,25.82
2022-08-09T18:22:44.210Z,25.76
2022-08-09T18:25:53.401Z,25.68
2022-08-09T18:30:39.171Z,25.64
2022-08-09T18:32:11.715Z,25.56
2022-08-09T18:35:09.956Z,25.37
2022-08-09T18:38:06.807Z,25.23
2022-08-09T18:41:08.940Z,25.25
2022-08-09T18:44:12.984Z,25.28
2022-08-09T18:47:15.272Z,25.29
2022-08-09T18:50:14.262Z,25.13
2022-08-09T18:53:13.452Z,25.05
2022-08-09T18:56:10.744Z,24.81
2022-08-09T18:59:07.962Z,24.64
2022-08-09T19:02:04.848Z,24.57
2022-08-09T19:05:19.721Z,24.48
2022-08-09T19:08:22.185Z,24.29
2022-08-09T19:11:35.126Z,24.04
2022-08-09T19:14:35.018Z,24.34
2022-08-09T19:17:54.387Z,24.10
2022-08-09T19:20:52.374Z,23.82
2022-08-09T19:24:37.050Z,23.64
2022-08-09T19:27:13.180Z,23.65
2022-08-09T19:30:25.246Z,23.60
2022-08-09T19:33:25.926Z,23.56
2022-08-09T19:36:23.972Z,23.70
2022-08-09T19:39:43.182Z,23.55
2022-08-09T19:42:47.305Z,23.48
2022-08-09T19:45:47.252Z,23.36
2022-08-09T19:49:00.385Z,23.21
2022-08-09T19:52:00.141Z,23.24
2022-08-09T19:54:59.179Z,23.01
2022-08-09T19:57:56.203Z,22.72
2022-08-09T20:00:53.907Z,22.81
2022-08-09T20:04:10.524Z,22.83
2022-08-09T20:07:20.977Z,22.59
2022-08-09T20:10:22.123Z,22.49
2022-08-09T20:13:25.227Z,22.47
2022-08-09T20:16:34.446Z,22.33
2022-08-09T20:19:47.707Z,22.24
2022-08-09T20:22:49.996Z,22.26
2022-08-09T20:25:51.486Z,22.12
2022-08-09T20:28:50.096Z,22.06
2022-08-09T20:32:28.686Z,21.99
2022-08-09T20:35:07.530Z,21.93
2022-08-09T20:38:22.234Z,21.93
2022-08-09T20:41:35.133Z,21.92
2022-08-09T20:44:36.515Z,22.07
2022-08-09T20:47:48.093Z,22.03
2022-08-09T20:50:47.602Z,21.98
2022-08-09T20:53:46.018Z,21.51
2022-08-09T20:56:49.654Z,21.59
2022-08-09T21:00:30.648Z,21.44
2022-08-09T21:03:08.238Z,21.34
2022-08-09T21:06:06.520Z,21.32
2022-08-09T21:09:06.579Z,21.26
2022-08-09T21:15:14.110Z,21.09
2022-08-09T21:18:24.668Z,21.06
2022-08-09T21:21:23.134Z,21.06
2022-08-09T21:25:00.334Z,20.93
2022-08-09T21:27:57.927Z,21.03
2022-08-09T21:30:54.917Z,20.85
2022-08-09T21:33:56.752Z,20.80
2022-08-09T21:36:55.874Z,20.74
2022-08-09T21:39:53.834Z,20.79
2022-08-09T21:42:54.346Z,20.97
2022-08-09T21:45:52.118Z,20.86
2022-08-09T21:48:53.378Z,20.58
2022-08-09T21:51:50.121Z,20.40
2022-08-09T21:54:59.599Z,20.50
2022-08-09T21:58:01.942Z,20.69
2022-08-09T22:00:59.521Z,20.73
2022-08-09T22:03:59.139Z,20.49
2022-08-09T22:07:02.004Z,20.36
2022-08-09T22:10:02.982Z,20.07
2022-08-09T22:13:00.274Z,19.93
2022-08-09T22:16:07.562Z,20.11
2022-08-09T22:19:23.841Z,20.23
2022-08-09T22:22:22.139Z,19.92
2022-08-09T22:26:07.383Z,19.89
2022-08-09T22:28:37.008Z,20.01
2022-08-09T22:31:44.121Z,19.81
2022-08-09T22:35:02.348Z,19.60
2022-08-09T22:38:06.999Z,19.39
2022-08-09T22:41:05.055Z,19.41
2022-08-09T22:44:04.472Z,19.69
2022-08-09T22:48:13.137Z,19.97
2022-08-09T22:50:19.586Z,20.12
2022-08-09T22:53:17.441Z,19.93
2022-08-09T22:56:33.209Z,19.84
2022-08-09T22:59:57.165Z,19.86
2022-08-09T23:02:48.095Z,19.97
2022-08-09T23:05:45.769Z,19.86
2022-08-09T23:08:45.712Z,19.76
2022-08-09T23:11:42.951Z,19.65
2022-08-09T23:14:42.195Z,19.57
2022-08-09T23:17:40.213Z,19.46
2022-08-09T23:20:36.877Z,19.25
2022-08-09T23:23:34.690Z,19.10
2022-08-09T23:26:32.155Z,19.12
2022-08-09T23:29:31.066Z,19.49
2022-08-09T23:32:28.320Z,19.51
2022-08-09T23:35:25.231Z,19.27
2022-08-09T23:38:22.056Z,19.28
2022-08-09T23:41:28.818Z,19.29
2022-08-09T23:44:26.195Z,19.18
2022-08-09T23:47:23.344Z,18.99
2022-08-09T23:50:20.420Z,19.01
2022-08-09T23:53:17.301Z,19.08
2022-08-09T23:56:15.499Z,19.27
2022-08-09T23:59:14.974Z,19.49
